Time;durP1;ratioP1;P1;durP2;ratioP2;P2;SDS_P1;SDS_P2;PMS_P1;PMS_P2;Temp;Humidity;BMP_temperature;BMP_pressure;BME280_temperature;BME280_humidity;BME280_pressure;Samples;Min_cycle;Max_cycle;Signal;HPM_P1;HPM_P2
2023/07/28 00:00:34;;;;;;;5.95;4.55;;;;;;;19.75;71.06;99388.38;1632162;88;21496;-53
2023/07/28 00:03:41;;;;;;;9.53;4.42;;;;;;;19.70;71.02;99365.23;1632539;88;21421;-53
2023/07/28 00:06:47;;;;;;;6.28;3.60;;;;;;;19.64;70.99;99335.73;1631867;88;21480;-53
2023/07/28 00:09:55;;;;;;;6.37;4.12;;;;;;;19.56;71.02;99304.27;1631863;88;21472;-53
2023/07/28 00:13:02;;;;;;;5.75;3.87;;;;;;;19.44;71.07;99259.98;1632391;87;21396;-53
2023/07/28 00:16:06;;;;;;;6.30;4.20;;;;;;;19.28;71.14;99252.61;1632415;88;21389;-54
2023/07/28 00:19:12;;;;;;;6.65;4.08;;;;;;;19.15;71.35;99271.00;1631931;88;21961;-54
2023/07/28 00:22:18;;;;;;;8.28;4.30;;;;;;;19.09;71.56;99252.61;1632556;88;22043;-56
2023/07/28 00:25:24;;;;;;;5.85;3.80;;;;;;;19.02;71.75;99234.77;1632466;88;21373;-57
2023/07/28 00:28:30;;;;;;;5.08;3.87;;;;;;;18.97;71.90;99236.09;1632425;88;21422;-54
2023/07/28 00:31:35;;;;;;;4.95;4.05;;;;;;;18.96;72.04;99229.41;1632417;88;21374;-54
2023/07/28 00:34:42;;;;;;;9.28;6.87;;;;;;;18.92;72.18;99219.38;1632434;88;21369;-55
2023/07/28 00:37:41;;;;;;;8.13;5.15;;;;;;;18.89;72.26;99237.92;1631958;88;21906;-55
2023/07/28 00:40:47;;;;;;;5.08;4.08;;;;;;;18.88;72.36;99236.80;1631037;88;21417;-55
2023/07/28 00:43:53;;;;;;;5.17;3.33;;;;;;;18.84;72.41;99218.44;1636770;87;21437;-55
2023/07/28 00:46:59;;;;;;;5.97;4.00;;;;;;;18.82;72.46;99219.80;1636769;87;21445;-56
2023/07/28 00:50:05;;;;;;;5.03;4.10;;;;;;;18.74;72.42;99208.59;1636794;87;21436;-57
2023/07/28 00:53:10;;;;;;;6.47;3.83;;;;;;;18.69;72.58;99216.02;1636758;87;21918;-55
2023/07/28 00:56:17;;;;;;;6.53;4.65;;;;;;;18.66;72.69;99225.66;1636834;87;21457;-56
2023/07/28 00:59:25;;;;;;;5.90;4.00;;;;;;;18.66;72.81;99229.82;1636796;87;21926;-56
2023/07/28 01:02:31;;;;;;;8.15;4.03;;;;;;;18.65;72.91;99232.31;1636759;87;21421;-56
2023/07/28 01:05:47;;;;;;;11.38;6.12;;;;;;;18.63;72.99;99234.50;1636853;87;21385;-56
2023/07/28 01:09:15;;;;;;;5.22;4.17;;;;;;;18.63;73.09;99230.34;1636171;87;21373;-58
2023/07/28 01:12:22;;;;;;;7.25;3.80;;;;;;;18.62;73.17;99230.05;1636792;87;21373;-57
2023/07/28 01:15:29;;;;;;;11.55;5.15;;;;;;;18.63;73.30;99234.50;1636838;87;21441;-57
2023/07/28 01:18:35;;;;;;;6.85;4.42;;;;;;;18.63;73.35;99241.42;1636802;87;21405;-55
2023/07/28 01:21:43;;;;;;;12.73;5.90;;;;;;;18.64;73.45;99243.12;1636787;87;21380;-57
2023/07/28 01:25:00;;;;;;;6.15;4.22;;;;;;;18.66;73.50;99239.53;1636773;87;21400;-55
2023/07/28 01:28:06;;;;;;;8.28;4.95;;;;;;;18.67;73.51;99238.45;1636768;87;21408;-56
2023/07/28 01:31:14;;;;;;;6.83;4.47;;;;;;;18.65;73.54;99233.70;1636753;87;21405;-57
2023/07/28 01:34:20;;;;;;;4.15;3.72;;;;;;;18.64;73.56;99230.65;1636811;87;21369;-56
2023/07/28 01:37:26;;;;;;;10.03;4.70;;;;;;;18.64;73.69;99231.19;1636782;87;21388;-55
2023/07/28 01:40:33;;;;;;;5.50;3.80;;;;;;;18.64;73.79;99230.65;1636754;87;21388;-55
2023/07/28 01:43:39;;;;;;;5.67;3.62;;;;;;;18.62;73.67;99223.66;1626308;87;21446;-55
2023/07/28 01:46:46;;;;;;;7.25;4.30;;;;;;;18.57;73.73;99220.28;1623656;88;21401;-56
2023/07/28 01:49:51;;;;;;;6.25;3.67;;;;;;;18.54;73.80;99212.47;1605288;88;21346;-56
2023/07/28 01:52:56;;;;;;;6.60;3.52;;;;;;;18.52;73.85;99210.50;1623693;88;21890;-56
2023/07/28 01:56:02;;;;;;;5.10;3.67;;;;;;;18.48;73.87;99212.12;1623713;88;21381;-56
2023/07/28 01:59:09;;;;;;;8.43;3.87;;;;;;;18.46;73.92;99211.53;1623698;88;21417;-56
2023/07/28 02:02:16;;;;;;;8.10;3.70;;;;;;;18.41;74.04;99213.41;1623699;88;21426;-57
2023/07/28 02:05:23;;;;;;;4.70;3.20;;;;;;;18.37;74.12;99221.88;1623730;88;21398;-56
2023/07/28 02:08:28;;;;;;;6.05;3.83;;;;;;;18.35;74.18;99222.14;1623811;88;21867;-56
2023/07/28 02:11:35;;;;;;;4.37;3.40;;;;;;;18.32;74.23;99235.66;1623697;88;21401;-55
2023/07/28 02:14:41;;;;;;;5.37;3.40;;;;;;;18.29;74.21;99247.25;1623788;88;21379;-55
2023/07/28 02:17:47;;;;;;;5.55;3.35;;;;;;;18.27;74.40;99261.35;1623758;88;22120;-54
2023/07/28 02:20:57;;;;;;;5.30;3.70;;;;;;;18.30;74.57;99278.03;1623718;88;21458;-55
2023/07/28 02:24:03;;;;;;;4.15;3.37;;;;;;;18.33;74.70;99279.73;1623764;88;21425;-56
2023/07/28 02:27:11;;;;;;;4.20;2.92;;;;;;;18.34;74.76;99281.97;1623770;88;21417;-54
2023/07/28 02:30:18;;;;;;;4.67;3.00;;;;;;;18.36;74.85;99306.11;1623734;88;21433;-55
2023/07/28 02:33:25;;;;;;;3.60;2.62;;;;;;;18.34;74.82;99313.30;1623721;88;21871;-55
2023/07/28 02:36:31;;;;;;;4.70;3.02;;;;;;;18.34;74.88;99318.84;1623680;88;21421;-56
2023/07/28 02:39:38;;;;;;;5.33;2.70;;;;;;;18.34;74.92;99325.77;1623665;88;21401;-55
2023/07/28 02:42:45;;;;;;;4.37;2.27;;;;;;;18.36;75.04;99327.72;1623717;88;21411;-56
2023/07/28 02:45:51;;;;;;;3.47;2.52;;;;;;;18.35;75.00;99327.97;1629111;88;21229;-55
2023/07/28 02:48:56;;;;;;;4.08;2.42;;;;;;;18.33;75.02;99329.61;1628656;87;21789;-56
2023/07/28 02:52:03;;;;;;;3.75;2.60;;;;;;;18.32;75.07;99321.02;1629909;88;21750;-56
2023/07/28 02:55:10;;;;;;;6.92;3.20;;;;;;;18.29;75.07;99317.36;1629664;88;21801;-57
2023/07/28 02:58:16;;;;;;;4.87;3.08;;;;;;;18.27;75.15;99309.84;1629681;88;21249;-56
2023/07/28 03:01:20;;;;;;;6.65;3.45;;;;;;;18.27;75.29;99309.84;1629676;88;21329;-58
2023/07/28 03:04:27;;;;;;;5.28;3.47;;;;;;;18.29;75.33;99304.05;1632188;87;21276;-58
2023/07/28 03:07:43;;;;;;;5.30;3.55;;;;;;;18.29;75.41;99297.97;1629063;88;21269;-58
2023/07/28 03:10:49;;;;;;;5.78;3.77;;;;;;;18.29;75.40;99299.89;1629474;88;21321;-57
2023/07/28 03:13:55;;;;;;;6.97;3.85;;;;;;;18.31;75.45;99294.41;1629433;88;21288;-57
2023/07/28 03:17:01;;;;;;;5.10;3.70;;;;;;;18.30;75.47;99295.48;1629709;88;21313;-58
2023/07/28 03:20:07;;;;;;;8.25;3.98;;;;;;;18.29;75.54;99293.81;1629628;88;21340;-58
2023/07/28 03:23:13;;;;;;;5.33;3.87;;;;;;;18.31;75.60;99301.33;1629585;88;21300;-58
2023/07/28 03:26:19;;;;;;;5.20;3.50;;;;;;;18.32;75.68;99300.23;1629693;88;21836;-59
2023/07/28 03:29:26;;;;;;;9.20;3.87;;;;;;;18.30;75.65;99299.63;1629683;88;21758;-58
2023/07/28 03:32:32;;;;;;;6.47;3.70;;;;;;;18.25;75.58;99295.95;1629149;88;21260;-58
2023/07/28 03:35:37;;;;;;;5.97;4.03;;;;;;;18.20;75.67;99287.02;1629410;88;21769;-58
2023/07/28 03:38:46;;;;;;;5.50;3.55;;;;;;;18.19;75.81;99290.86;1632050;87;21524;-58
2023/07/28 03:41:52;;;;;;;4.97;3.65;;;;;;;18.21;75.97;99294.23;1629585;88;21518;-59
2023/07/28 03:44:59;;;;;;;6.35;3.87;;;;;;;18.26;76.16;99305.94;1627161;88;21223;-60
2023/07/28 03:48:05;;;;;;;4.55;3.85;;;;;;;18.32;76.20;99308.54;1632418;88;21404;-59
2023/07/28 03:51:12;;;;;;;5.30;3.65;;;;;;;18.31;76.11;99298.56;1632403;88;21919;-59
2023/07/28 03:54:18;;;;;;;5.83;3.60;;;;;;;18.29;76.10;99281.34;1632406;88;21913;-59
2023/07/28 03:57:24;;;;;;;4.45;3.47;;;;;;;18.27;76.15;99273.81;1632508;88;21902;-59
2023/07/28 04:00:30;;;;;;;6.90;3.65;;;;;;;18.29;76.29;99270.80;1632437;88;21384;-59
2023/07/28 04:03:38;;;;;;;5.58;3.62;;;;;;;18.30;76.33;99271.92;1632431;88;21397;-58
2023/07/28 04:06:53;;;;;;;4.50;3.60;;;;;;;18.34;76.41;99280.05;1632517;88;21389;-58
2023/07/28 04:10:00;;;;;;;6.45;3.67;;;;;;;18.37;76.49;99278.16;1632507;88;21413;-59
2023/07/28 04:13:07;;;;;;;3.80;3.40;;;;;;;18.42;76.56;99280.19;1631748;88;21406;-57
2023/07/28 04:16:13;;;;;;;5.40;3.90;;;;;;;18.44;76.53;99271.91;1631793;88;21465;-58
2023/07/28 04:19:19;;;;;;;7.30;3.37;;;;;;;18.41;76.50;99265.48;1631958;88;21430;-58
2023/07/28 04:22:25;;;;;;;4.12;3.72;;;;;;;18.43;76.61;99265.23;1631887;87;21917;-60
2023/07/28 04:25:34;;;;;;;4.78;3.70;;;;;;;18.44;76.65;99264.97;1631943;88;21383;-58
2023/07/28 04:28:39;;;;;;;4.60;3.70;;;;;;;18.46;76.71;99262.80;1632439;88;21354;-59
2023/07/28 04:31:46;;;;;;;4.17;3.50;;;;;;;18.51;76.84;99250.41;1632432;88;21381;-58
2023/07/28 04:34:55;;;;;;;6.00;3.60;;;;;;;18.60;76.96;99257.75;1632381;88;21408;-57
2023/07/28 04:38:12;;;;;;;4.67;3.83;;;;;;;18.69;77.11;99270.92;1630272;85;21334;-56
2023/07/28 04:41:21;;;;;;;5.83;3.92;;;;;;;18.78;77.03;99275.47;1652561;86;21386;-59
2023/07/28 04:44:30;;;;;;;5.05;3.47;;;;;;;18.82;77.05;99269.15;1656367;85;21272;-59
2023/07/28 04:47:37;;;;;;;4.20;3.72;;;;;;;18.85;77.00;99274.17;1682993;84;21391;-61
2023/07/28 04:50:46;;;;;;;4.25;3.85;;;;;;;18.86;77.03;99274.49;1686950;85;21410;-59
2023/07/28 04:53:53;;;;;;;5.50;3.80;;;;;;;18.88;77.04;99277.01;1686572;85;21395;-58
2023/07/28 04:56:58;;;;;;;4.67;4.08;;;;;;;18.89;77.10;99279.52;1650334;85;21239;-55
2023/07/28 05:00:05;;;;;;;5.60;4.47;;;;;;;18.90;77.10;99274.25;1650297;85;21287;-61
2023/07/28 05:03:10;;;;;;;5.85;4.20;;;;;;;18.92;77.14;99270.69;1633469;86;21737;-59
2023/07/28 05:06:21;;;;;;;6.10;3.80;;;;;;;18.94;77.11;99282.91;1654598;85;21280;-59
2023/07/28 05:09:28;;;;;;;4.05;3.65;;;;;;;18.92;77.12;99288.72;1656023;86;21414;-63
2023/07/28 05:12:34;;;;;;;5.78;3.45;;;;;;;18.93;77.19;99284.02;1656176;86;21366;-66
2023/07/28 05:15:41;;;;;;;4.62;3.60;;;;;;;18.92;77.14;99287.33;1629913;87;21247;-66
2023/07/28 05:18:54;;;;;;;5.80;3.70;;;;;;;18.90;77.17;99285.34;1623881;85;21247;-59
2023/07/28 05:22:19;;;;;;;6.30;4.00;;;;;;;18.88;77.22;99277.86;1654298;85;21243;-65
2023/07/28 05:25:28;;;;;;;4.53;3.92;;;;;;;18.94;77.36;99274.59;1655111;85;21247;-62
2023/07/28 05:28:33;;;;;;;4.83;3.72;;;;;;;18.99;77.47;99282.98;1655588;85;21792;-62
2023/07/28 05:31:38;;;;;;;6.22;3.95;;;;;;;19.04;77.51;99288.03;1648518;86;21238;-59
2023/07/28 05:34:50;;;;;;;5.90;3.77;;;;;;;19.11;77.55;99280.38;1656488;86;21453;-58
2023/07/28 05:37:57;;;;;;;4.67;4.15;;;;;;;19.18;77.57;99284.34;1657175;85;21418;-60
2023/07/28 05:41:07;;;;;;;6.70;4.00;;;;;;;19.27;77.65;99287.80;1657237;86;21898;-60
2023/07/28 05:44:13;;;;;;;5.85;3.77;;;;;;;19.38;77.69;99289.36;1656192;85;21445;-59
2023/07/28 05:47:19;;;;;;;6.15;4.50;;;;;;;19.46;77.67;99283.31;1673955;85;21867;-63
2023/07/28 05:50:28;;;;;;;5.87;4.30;;;;;;;19.54;77.70;99285.63;1624511;87;21401;-60
2023/07/28 05:53:33;;;;;;;6.10;3.60;;;;;;;19.63;77.67;99284.09;1653656;86;21915;-60
2023/07/28 05:56:41;;;;;;;4.12;3.72;;;;;;;19.73;77.73;99285.03;1653421;85;21288;-58
2023/07/28 05:59:48;;;;;;;5.60;3.83;;;;;;;19.81;77.63;99268.44;1647709;85;21208;-58
2023/07/28 06:02:56;;;;;;;8.38;3.90;;;;;;;19.87;77.57;99273.78;1652283;85;21255;-59
2023/07/28 06:06:08;;;;;;;5.37;4.65;;;;;;;19.96;77.68;99273.62;1652272;86;21263;-59
2023/07/28 06:09:14;;;;;;;4.72;3.72;;;;;;;20.07;77.65;99263.42;1653060;85;21236;-59
2023/07/28 06:12:21;;;;;;;7.55;3.70;;;;;;;20.12;77.54;99266.25;1653377;86;21235;-62
2023/07/28 06:15:28;;;;;;;4.33;3.80;;;;;;;20.20;77.64;99276.34;1653650;86;21287;-60
2023/07/28 06:18:34;;;;;;;4.37;3.62;;;;;;;20.29;77.55;99272.53;1647040;87;21955;-59
2023/07/28 06:21:41;;;;;;;4.00;3.40;;;;;;;20.30;77.43;99269.49;1647681;86;21277;-57
2023/07/28 06:24:47;;;;;;;4.50;3.87;;;;;;;20.38;77.48;99270.39;1647888;86;21265;-58
2023/07/28 06:27:54;;;;;;;4.75;4.17;;;;;;;20.49;77.59;99280.48;1647356;86;21345;-60
2023/07/28 06:31:03;;;;;;;5.78;3.70;;;;;;;20.62;77.64;99299.50;1650518;86;21253;-60
2023/07/28 06:34:09;;;;;;;4.70;3.80;;;;;;;20.76;77.62;99297.08;1633841;86;21265;-58
2023/07/28 06:37:18;;;;;;;5.55;4.05;;;;;;;20.86;77.57;99298.55;1653736;85;22094;-59
2023/07/28 06:40:24;;;;;;;4.20;3.77;;;;;;;20.91;77.34;99311.10;1657157;85;21293;-58
2023/07/28 06:43:32;;;;;;;4.47;3.80;;;;;;;20.91;77.26;99309.71;1643527;86;21814;-57
2023/07/28 06:46:37;;;;;;;5.22;3.65;;;;;;;20.91;77.17;99315.27;1652761;85;21235;-59
2023/07/28 06:49:44;;;;;;;4.05;3.65;;;;;;;20.90;77.09;99320.53;1642478;86;21249;-57
2023/07/28 06:52:49;;;;;;;4.90;3.90;;;;;;;20.97;77.18;99318.40;1647485;87;21255;-56
2023/07/28 06:55:54;;;;;;;5.03;4.30;;;;;;;21.05;77.09;99327.63;1642779;85;21849;-57
2023/07/28 06:59:00;;;;;;;4.20;3.80;;;;;;;21.12;77.17;99330.18;1643856;87;21286;-62
2023/07/28 07:02:09;;;;;;;4.05;3.65;;;;;;;21.15;76.99;99336.05;1644581;85;21804;-61
2023/07/28 07:05:16;;;;;;;5.83;3.98;;;;;;;21.10;76.92;99334.62;1634593;87;21397;-62
2023/07/28 07:08:24;;;;;;;4.50;4.10;;;;;;;21.06;76.89;99339.61;1646143;85;21864;-62
2023/07/28 07:11:31;;;;;;;4.10;3.70;;;;;;;20.97;76.83;99342.59;1632857;87;21259;-62
2023/07/28 07:14:39;;;;;;;4.42;3.55;;;;;;;20.91;76.88;99356.16;1630924;85;21791;-64
2023/07/28 07:17:45;;;;;;;5.90;3.90;;;;;;;20.88;76.94;99355.31;1645196;85;21606;-58
2023/07/28 07:20:52;;;;;;;5.12;3.40;;;;;;;20.84;77.01;99349.44;1648345;85;21745;-62
2023/07/28 07:23:57;;;;;;;4.67;3.47;;;;;;;20.79;77.07;99351.63;1630485;86;21255;-63
2023/07/28 07:27:04;;;;;;;3.70;3.00;;;;;;;20.77;77.04;99339.11;1645251;85;21584;-60
2023/07/28 07:30:11;;;;;;;4.20;3.25;;;;;;;20.67;76.96;99330.67;1607916;89;21273;-57
2023/07/28 07:33:16;;;;;;;5.85;3.42;;;;;;;20.60;77.04;99340.64;1617946;88;21460;-58
2023/07/28 07:36:25;;;;;;;6.00;3.77;;;;;;;20.56;77.16;99352.02;1599708;88;21311;-58
2023/07/28 07:39:30;;;;;;;4.33;3.40;;;;;;;20.58;77.27;99336.45;1587301;89;21333;-57
2023/07/28 07:42:36;;;;;;;4.80;3.55;;;;;;;20.66;77.44;99326.23;1600888;89;21284;-56
2023/07/28 07:45:41;;;;;;;4.97;2.90;;;;;;;20.76;77.45;99337.41;1599801;88;21247;-60
2023/07/28 07:48:47;;;;;;;3.08;2.72;;;;;;;20.75;77.27;99341.31;1601220;88;21233;-59
2023/07/28 07:51:54;;;;;;;5.00;2.70;;;;;;;20.68;77.22;99338.75;1586129;89;21831;-59
2023/07/28 07:55:00;;;;;;;4.92;3.00;;;;;;;20.70;77.36;99347.68;1573613;91;21308;-59
2023/07/28 07:58:05;;;;;;;3.35;2.47;;;;;;;20.76;77.35;99345.75;1589413;87;21331;-57
2023/07/28 08:01:10;;;;;;;3.75;2.40;;;;;;;20.71;77.21;99348.49;1579373;91;21811;-61
2023/07/28 08:04:16;;;;;;;3.80;3.33;;;;;;;20.61;77.24;99354.00;1590156;89;21336;-57
2023/07/28 08:07:23;;;;;;;5.72;4.67;;;;;;;20.57;77.34;99356.46;1600177;89;21424;-59
2023/07/28 08:10:29;;;;;;;5.12;4.50;;;;;;;20.44;77.19;99363.84;1603140;87;21804;-59
2023/07/28 08:13:35;;;;;;;6.12;4.55;;;;;;;20.33;77.30;99369.03;1610196;88;21332;-59
2023/07/28 08:16:41;;;;;;;5.53;4.85;;;;;;;20.31;77.48;99370.41;1609980;89;21241;-59
2023/07/28 08:19:49;;;;;;;9.25;5.00;;;;;;;20.30;77.54;99357.59;1594658;89;21295;-60
2023/07/28 08:22:57;;;;;;;6.05;5.25;;;;;;;20.31;77.69;99370.41;1589208;89;21291;-57
2023/07/28 08:26:03;;;;;;;7.58;5.35;;;;;;;20.30;77.71;99372.34;1594899;88;21311;-58
2023/07/28 08:29:10;;;;;;;7.72;4.72;;;;;;;20.27;77.72;99376.19;1577497;89;21291;-57
2023/07/28 08:32:17;;;;;;;6.50;4.83;;;;;;;20.26;77.80;99380.08;1596671;89;21261;-58
2023/07/28 08:35:25;;;;;;;7.12;4.85;;;;;;;20.26;77.85;99379.54;1568482;89;22133;-57
2023/07/28 08:38:32;;;;;;;7.40;4.83;;;;;;;20.22;77.84;99381.69;1582726;89;21264;-59
2023/07/28 08:41:37;;;;;;;7.37;4.92;;;;;;;20.16;77.77;99400.81;1598906;89;21320;-59
2023/07/28 08:44:42;;;;;;;6.22;4.83;;;;;;;20.07;77.84;99396.80;1563370;91;21262;-56
2023/07/28 08:47:48;;;;;;;7.80;4.80;;;;;;;19.99;77.88;99406.45;1563915;91;21299;-59
2023/07/28 08:50:54;;;;;;;6.22;4.90;;;;;;;19.94;77.98;99397.20;1579641;82;21261;-59
2023/07/28 08:54:00;;;;;;;6.47;4.70;;;;;;;19.92;78.11;99399.39;1661424;85;21234;-60
2023/07/28 08:57:05;;;;;;;5.40;4.67;;;;;;;19.94;78.19;99395.27;1647115;85;21792;-58
2023/07/28 09:00:18;;;;;;;8.15;4.85;;;;;;;19.99;78.32;99393.94;1640732;87;21839;-60
2023/07/28 09:03:27;;;;;;;5.30;4.50;;;;;;;20.04;78.33;99405.09;1630910;85;21775;-60
2023/07/28 09:06:37;;;;;;;8.58;4.58;;;;;;;20.05;78.33;99400.38;1651832;85;21239;-61
2023/07/28 09:09:47;;;;;;;4.80;4.30;;;;;;;20.03;78.30;99409.52;1652896;87;21242;-58
2023/07/28 09:12:57;;;;;;;6.50;4.33;;;;;;;19.98;78.35;99408.09;1653504;87;21303;-59
2023/07/28 09:16:04;;;;;;;8.25;4.70;;;;;;;19.96;78.34;99429.73;1639873;87;21259;-58
2023/07/28 09:19:14;;;;;;;9.78;5.05;;;;;;;19.87;78.24;99413.24;1654161;87;21425;-57
2023/07/28 09:22:21;;;;;;;6.53;4.90;;;;;;;19.79;78.28;99398.42;1653757;87;21631;-59
2023/07/28 09:25:28;;;;;;;6.70;4.75;;;;;;;19.79;78.38;99408.95;1639328;86;21240;-58
2023/07/28 09:28:46;;;;;;;6.03;4.78;;;;;;;19.79;78.49;99408.14;1646953;85;21316;-59
2023/07/28 09:31:54;;;;;;;6.05;4.60;;;;;;;19.80;78.58;99417.60;1686373;85;21615;-59
2023/07/28 09:35:02;;;;;;;8.60;4.72;;;;;;;19.81;78.58;99419.80;1684384;85;21841;-59
2023/07/28 09:38:08;;;;;;;6.70;4.45;;;;;;;19.87;78.61;99417.41;1631275;87;21294;-61
2023/07/28 09:41:14;;;;;;;5.30;3.65;;;;;;;19.90;78.48;99432.98;1638115;87;21311;-59
2023/07/28 09:44:19;;;;;;;4.62;4.10;;;;;;;19.91;78.44;99439.39;1653400;86;21779;-61
2023/07/28 09:47:25;;;;;;;5.42;3.67;;;;;;;19.91;78.42;99444.95;1653337;87;21758;-58
2023/07/28 09:50:32;;;;;;;7.60;3.87;;;;;;;19.89;78.38;99445.20;1653689;87;21234;-59
2023/07/28 09:53:38;;;;;;;4.50;3.83;;;;;;;19.92;78.48;99442.45;1649601;86;21319;-59
2023/07/28 09:56:46;;;;;;;4.72;3.30;;;;;;;19.94;78.54;99444.42;1616469;88;21249;-60
2023/07/28 09:59:52;;;;;;;5.08;3.62;;;;;;;19.98;78.64;99445.60;1656617;85;21393;-61
2023/07/28 10:03:03;;;;;;;5.55;3.72;;;;;;;20.00;78.61;99471.16;1672325;85;21772;-60
2023/07/28 10:06:09;;;;;;;5.83;4.10;;;;;;;19.97;78.50;99461.42;1612128;87;21249;-56
2023/07/28 10:09:18;;;;;;;5.25;3.42;;;;;;;19.98;78.53;99449.77;1652678;86;21928;-55
2023/07/28 10:12:32;;;;;;;4.15;3.15;;;;;;;20.07;78.59;99455.15;1664622;85;21783;-56
2023/07/28 10:15:42;;;;;;;4.67;2.75;;;;;;;20.11;78.49;99460.46;1654132;85;21784;-56
2023/07/28 10:18:51;;;;;;;4.25;3.15;;;;;;;20.11;78.50;99462.70;1645346;86;21232;-57
2023/07/28 10:21:57;;;;;;;4.00;3.20;;;;;;;20.17;78.54;99455.31;1638169;86;21341;-55
2023/07/28 10:25:08;;;;;;;5.30;2.98;;;;;;;20.22;78.46;99465.07;1652102;86;21392;-57
2023/07/28 10:28:41;;;;;;;4.03;2.95;;;;;;;20.18;78.32;99465.31;1654235;85;21401;-54
2023/07/28 10:32:00;;;;;;;5.00;2.90;;;;;;;20.07;78.13;99464.34;1647311;86;21259;-55
2023/07/28 10:35:21;;;;;;;4.00;2.98;;;;;;;19.97;77.99;99474.47;1640197;86;21226;-56
2023/07/28 10:38:43;;;;;;;2.98;2.35;;;;;;;19.91;78.07;99475.50;1649337;85;21259;-55
2023/07/28 10:42:09;;;;;;;3.47;2.70;;;;;;;19.87;78.07;99483.51;1629340;87;21625;-54
2023/07/28 10:45:20;;;;;;;4.03;2.33;;;;;;;19.77;78.07;99486.70;1634243;85;21242;-55
2023/07/28 10:48:44;;;;;;;3.17;1.90;;;;;;;19.71;78.11;99488.56;1606501;86;21677;-55
2023/07/28 10:51:50;;;;;;;3.77;2.20;;;;;;;19.72;78.28;99483.85;1658904;85;21239;-54
2023/07/28 10:55:02;;;;;;;3.25;1.92;;;;;;;19.75;78.26;99494.45;1651359;85;21269;-55
2023/07/28 10:58:06;;;;;;;2.72;2.10;;;;;;;19.76;78.30;99501.67;1651492;86;21434;-56
2023/07/28 11:01:11;;;;;;;2.75;1.87;;;;;;;19.79;78.37;99493.67;1622308;87;21271;-56
2023/07/28 11:04:24;;;;;;;3.83;2.20;;;;;;;19.81;78.32;99502.59;1641307;87;21898;-54
2023/07/28 11:07:30;;;;;;;3.05;2.17;;;;;;;19.86;78.43;99512.39;1644280;85;21454;-56
2023/07/28 11:10:38;;;;;;;2.65;2.27;;;;;;;19.92;78.47;99511.89;1649118;85;21785;-55
2023/07/28 11:13:47;;;;;;;2.10;1.90;;;;;;;19.99;78.43;99521.75;1640877;87;21283;-55
2023/07/28 11:16:54;;;;;;;3.92;2.45;;;;;;;20.01;78.33;99518.14;1649631;87;21465;-55
2023/07/28 11:20:00;;;;;;;3.25;2.35;;;;;;;20.05;78.40;99532.36;1649173;85;21787;-55
2023/07/28 11:23:11;;;;;;;4.80;2.20;;;;;;;20.00;78.24;99526.73;1649537;85;21930;-55
2023/07/28 11:26:18;;;;;;;3.15;2.47;;;;;;;19.96;78.24;99529.21;1636268;87;21989;-55
2023/07/28 11:29:26;;;;;;;2.92;2.25;;;;;;;19.95;78.24;99529.44;1644325;85;21228;-55
2023/07/28 11:32:33;;;;;;;5.28;2.50;;;;;;;19.91;78.27;99544.95;1644079;87;21495;-54
2023/07/28 11:35:40;;;;;;;3.10;2.12;;;;;;;19.89;78.28;99557.72;1646149;85;21413;-55
2023/07/28 11:38:47;;;;;;;2.87;2.22;;;;;;;19.85;78.28;99546.80;1649449;86;21307;-55
2023/07/28 11:41:54;;;;;;;4.47;2.52;;;;;;;19.83;78.37;99556.50;1648728;85;21390;-55
2023/07/28 11:45:00;;;;;;;4.25;2.60;;;;;;;19.86;78.42;99552.67;1647960;85;21223;-55
2023/07/28 11:48:12;;;;;;;5.35;2.65;;;;;;;19.90;78.50;99555.78;1638737;87;21374;-56
2023/07/28 11:51:20;;;;;;;4.30;2.83;;;;;;;19.92;78.52;99563.29;1630286;85;21212;-54
2023/07/28 11:54:29;;;;;;;3.08;2.58;;;;;;;19.92;78.42;99574.41;1640479;85;21267;-54
2023/07/28 11:57:37;;;;;;;3.67;2.85;;;;;;;19.87;78.35;99568.23;1647458;87;21247;-53
2023/07/28 12:00:47;;;;;;;4.05;2.70;;;;;;;19.88;78.37;99576.03;1646109;87;21236;-54
2023/07/28 12:03:53;;;;;;;3.67;2.80;;;;;;;19.92;78.37;99590.53;1597358;90;21250;-54
2023/07/28 12:07:24;;;;;;;2.95;2.42;;;;;;;19.93;78.30;99581.66;1621479;87;21287;-53
2023/07/28 12:10:35;;;;;;;3.10;2.37;;;;;;;19.91;78.21;99592.19;1649020;87;21817;-54
2023/07/28 12:13:40;;;;;;;2.37;2.12;;;;;;;19.89;78.27;99580.48;1649494;85;21381;-54
2023/07/28 12:16:48;;;;;;;3.62;2.40;;;;;;;19.93;78.36;99587.22;1649399;85;21437;-54
2023/07/28 12:20:11;;;;;;;2.98;2.35;;;;;;;19.98;78.37;99583.13;1649084;85;21794;-54
2023/07/28 12:23:17;;;;;;;2.10;1.90;;;;;;;20.10;78.54;99574.97;1644739;85;21247;-56
2023/07/28 12:26:24;;;;;;;2.40;2.20;;;;;;;20.29;78.55;99574.13;1650292;84;21704;-57
2023/07/28 12:29:30;;;;;;;3.52;2.67;;;;;;;20.43;78.46;99589.32;1639523;87;21319;-52
2023/07/28 12:32:37;;;;;;;5.53;3.25;;;;;;;20.50;78.30;99583.03;1640789;87;21254;-53
2023/07/28 12:35:46;;;;;;;2.65;2.10;;;;;;;20.47;78.11;99598.27;1640875;85;21319;-54
2023/07/28 12:38:53;;;;;;;5.10;2.60;;;;;;;20.49;78.09;99600.25;1648818;85;21328;-53
2023/07/28 12:42:01;;;;;;;3.22;2.40;;;;;;;20.51;78.00;99605.55;1639585;87;21259;-53
2023/07/28 12:45:10;;;;;;;4.40;2.25;;;;;;;20.59;78.07;99605.10;1641911;85;21313;-55
2023/07/28 12:48:19;;;;;;;4.97;2.22;;;;;;;20.67;78.03;99608.28;1649840;87;21495;-54
2023/07/28 12:51:26;;;;;;;3.20;2.33;;;;;;;20.78;78.04;99600.34;1649055;85;21405;-58
2023/07/28 12:54:31;;;;;;;7.03;2.52;;;;;;;20.92;77.97;99604.93;1648450;85;21401;-59
2023/07/28 12:57:39;;;;;;;2.85;2.50;;;;;;;21.11;78.03;99597.08;1627567;87;21783;-58
2023/07/28 13:00:45;;;;;;;3.55;2.60;;;;;;;21.37;78.06;99601.26;1627754;87;21806;-59
2023/07/28 13:03:53;;;;;;;4.75;2.75;;;;;;;21.65;77.97;99600.09;1647787;86;21289;-56
2023/07/28 13:07:00;;;;;;;3.67;2.60;;;;;;;21.87;77.76;99596.66;1630437;86;21339;-58
2023/07/28 13:10:12;;;;;;;2.90;2.20;;;;;;;22.04;77.45;99605.72;1646113;86;21253;-57
2023/07/28 13:13:17;;;;;;;2.92;2.55;;;;;;;22.12;77.29;99607.42;1651150;86;21265;-57
2023/07/28 13:16:23;;;;;;;4.33;2.33;;;;;;;22.20;77.07;99601.34;1627020;87;21776;-58
2023/07/28 13:19:29;;;;;;;4.20;2.72;;;;;;;22.18;76.76;99600.77;1627288;88;21261;-58
2023/07/28 13:22:29;;;;;;;4.17;2.47;;;;;;;22.13;76.60;99616.64;1627845;88;21308;-57
2023/07/28 13:25:21;;;;;;;3.63;2.50;;;;;;;22.10;76.47;99619.39;1628700;86;21242;-58
2023/07/28 13:28:27;;;;;;;5.15;2.27;;;;;;;22.11;76.34;99625.27;1628423;88;21301;-56
2023/07/28 13:31:33;;;;;;;3.85;2.37;;;;;;;22.07;76.20;99609.36;1621513;86;21263;-57
2023/07/28 13:34:38;;;;;;;4.12;2.20;;;;;;;22.17;76.42;99615.83;1623808;88;21308;-58
2023/07/28 13:37:43;;;;;;;3.47;2.12;;;;;;;22.23;76.13;99610.55;1618916;86;21313;-58
2023/07/28 13:40:48;;;;;;;2.47;2.10;;;;;;;22.31;76.14;99615.35;1626973;88;21316;-57
2023/07/28 13:43:54;;;;;;;5.12;2.40;;;;;;;22.52;76.23;99616.59;1630197;87;21373;-58
2023/07/28 13:47:02;;;;;;;5.22;2.50;;;;;;;22.72;76.17;99613.88;1623798;86;21548;-58
2023/07/28 13:50:09;;;;;;;3.58;2.25;;;;;;;22.77;75.69;99622.86;1620350;88;21379;-59
2023/07/28 13:53:16;;;;;;;4.97;2.25;;;;;;;22.72;75.37;99617.25;1620139;88;21402;-60
2023/07/28 13:56:23;;;;;;;3.37;2.20;;;;;;;22.69;75.35;99629.78;1625389;82;21394;-60
2023/07/28 13:59:27;;;;;;;3.90;2.10;;;;;;;22.78;75.37;99648.25;1639006;85;21206;-57
2023/07/28 14:02:35;;;;;;;2.90;2.00;;;;;;;22.75;74.97;99655.23;1587298;89;21769;-57
2023/07/28 14:05:42;;;;;;;2.55;1.90;;;;;;;22.69;74.82;99639.55;1613161;87;21290;-59
2023/07/28 14:08:47;;;;;;;5.85;2.37;;;;;;;22.62;74.76;99645.10;1635912;86;21392;-58
2023/07/28 14:11:54;;;;;;;4.03;2.17;;;;;;;22.61;74.78;99638.67;1636390;87;21441;-58
2023/07/28 14:15:01;;;;;;;5.45;2.25;;;;;;;22.73;74.82;99642.64;1636554;86;21385;-59
2023/07/28 14:18:09;;;;;;;2.62;1.82;;;;;;;22.79;74.75;99644.33;1634750;86;21384;-57
2023/07/28 14:21:15;;;;;;;4.70;2.00;;;;;;;22.74;74.51;99639.58;1634573;87;21425;-56
2023/07/28 14:24:21;;;;;;;5.55;2.27;;;;;;;22.69;74.45;99626.99;1604865;88;21270;-56
2023/07/28 14:27:28;;;;;;;3.40;1.95;;;;;;;22.78;74.55;99638.48;1642842;86;21414;-59
2023/07/28 14:30:35;;;;;;;3.22;2.27;;;;;;;22.82;74.43;99645.17;1613553;88;21275;-56
2023/07/28 14:33:41;;;;;;;3.72;2.20;;;;;;;22.97;74.37;99642.45;1633359;87;21243;-56
2023/07/28 14:36:49;;;;;;;4.97;2.15;;;;;;;23.01;74.13;99641.63;1631034;88;21243;-57
2023/07/28 14:39:55;;;;;;;3.55;1.80;;;;;;;22.95;73.93;99653.05;1594139;89;21298;-57
2023/07/28 14:43:01;;;;;;;2.77;1.85;;;;;;;22.73;73.47;99660.78;1631654;88;21744;-58